WetterOnline ( http://www.wetteronline.de )

Wetter aktuell Saarbrücken

Aktuelles Wetter: Saarbrücken/Ensheim (320m)

6-stündlich | Neueste Meldungen
Ortszeit Temperatur Wetter
Do, 26.04. 2:00 8.2° C fast wolkenlos
Mi, 25.04. 20:00 11.0° C leichte Schauer
Mi, 25.04. 14:00 13.7° C bewölkt
Mi, 25.04. 8:00 12.1° C fast wolkenlos
Mi, 25.04. 2:00 9.9° C wolkenlos
Di, 24.04. 20:00 17.2° C leicht bewölkt
Di, 24.04. 14:00 17.1° C leicht bewölkt
Di, 24.04. 8:00 10.1° C wolkig
Ortszeit Temperatur Wetter
Do, 26.04. 2:00 8.2° C fast wolkenlos
Do, 26.04. 1:50 8° C -
Do, 26.04. 1:40 8.5° C -
Do, 26.04. 1:30 8.4° C fast wolkenlos
Do, 26.04. 1:20 8.4° C -
Do, 26.04. 1:10 8.3° C -
Do, 26.04. 1:00 8.9° C leicht bewölkt
Do, 26.04. 0:30 9.4° C leicht bewölkt
Do, 26.04. 0:00 9.6° C leicht bewölkt
Mi, 25.04. 23:30 9.7° C wolkig
Mi, 25.04. 23:00 9.9° C wolkig
Mi, 25.04. 22:30 10.2° C -
Ortszeit Relative Feuchte Sichtweite
Do, 26.04. 2:00 93% 30 km
Mi, 25.04. 20:00 94% 20 km
Mi, 25.04. 14:00 71% 25 km
Mi, 25.04. 8:00 80% 35 km
Mi, 25.04. 2:00 87% 40 km
Di, 24.04. 20:00 56% 40 km
Di, 24.04. 14:00 54% 50 km
Di, 24.04. 8:00 90% 12 km
Ortszeit Relative Feuchte Sichtweite
Do, 26.04. 2:00 93% 30 km
Do, 26.04. 1:50 93% >10 km
Do, 26.04. 1:40 92% -
Do, 26.04. 1:30 95% 30 km
Do, 26.04. 1:20 95% -
Do, 26.04. 1:10 95% -
Do, 26.04. 1:00 92% 30 km
Do, 26.04. 0:30 91% 30 km
Do, 26.04. 0:00 92% 30 km
Mi, 25.04. 23:30 93% 30 km
Mi, 25.04. 23:00 93% 30 km
Mi, 25.04. 22:30 93% -
Ortszeit Niederschlagsmenge Niederschlagsart
Do, 26.04. 2:00 0.5 l/m2 in 6 Std. Schauer
Mi, 25.04. 20:00 0.8 l/m2 in 12 Std. Schauer
Mi, 25.04. 14:00 0.1 l/m2 in 6 Std. Schauer
Mi, 25.04. 8:00 0.0 l/m2 in 12 Std. -
Mi, 25.04. 2:00 0.0 l/m2 in 6 Std. -
Di, 24.04. 20:00 0.0 l/m2 in 12 Std. -
Di, 24.04. 14:00 0.0 l/m2 in 6 Std. -
Di, 24.04. 8:00 0.0 l/m2 in 12 Std. -
Ortszeit Niederschlagsmenge Niederschlagsart
Do, 26.04. 2:00 0.0 l/m2 in 1 Std. Schauer
Do, 26.04. 1:50 keine Meldung -
Do, 26.04. 1:40 keine Meldung -
Do, 26.04. 1:30 0.0 l/m2 in 1 Std. -
Do, 26.04. 1:20 keine Meldung -
Do, 26.04. 1:10 keine Meldung -
Do, 26.04. 1:00 0.0 l/m2 in 1 Std. -
Do, 26.04. 0:30 0.0 l/m2 in 1 Std. -
Do, 26.04. 0:00 0.0 l/m2 in 1 Std. -
Mi, 25.04. 23:30 0.0 l/m2 in 1 Std. -
Mi, 25.04. 23:00 0.1 l/m2 in 1 Std. Schauer
Mi, 25.04. 22:30 0.0 l/m2 in 1 Std. -
Ortszeit Stärke Spitze Richtung
km/h Bft. km/h Grad Sektor
Do, 26.04. 2:00 11 2 25 270° W
Mi, 25.04. 20:00 14 3 50 280° W
Mi, 25.04. 14:00 29 5 47 260° W
Mi, 25.04. 8:00 17 3 33 220° SW
Mi, 25.04. 2:00 2 1 13 110° O
Di, 24.04. 20:00 13 3 37 240° SW
Di, 24.04. 14:00 18 3 36 230° SW
Di, 24.04. 8:00 4 1 11 270° W
Ortszeit Stärke Spitze Richtung
km/h Bft. km/h Grad Sektor
Do, 26.04. 2:00 11 2 18 270° W
Do, 26.04. 1:50 11 2 - 260° W
Do, 26.04. 1:40 13 3 - 250° W
Do, 26.04. 1:30 11 2 18 250° W
Do, 26.04. 1:20 11 2 - 250° W
Do, 26.04. 1:10 9 2 - 250° W
Do, 26.04. 1:00 13 3 20 270° W
Do, 26.04. 0:30 13 3 17 250° W
Do, 26.04. 0:00 11 2 18 270° W
Mi, 25.04. 23:30 13 3 17 280° W
Mi, 25.04. 23:00 11 2 18 250° W
Mi, 25.04. 22:30 11 2 18 260° W
Ortszeit Untergrenze Bedeckung Gattung
total tief tief mittel hoch
Do, 26.04. 2:00 2100 m 1/8 1/8 Sc - -
Mi, 25.04. 20:00 210 m 8/8 5/8 Cu As -
Mi, 25.04. 14:00 750 m 7/8 7/8 Cu - -
Mi, 25.04. 8:00 1140 m 2/8 1/8 Sc Ac Ci
Mi, 25.04. 2:00 - 0/8 0/8 - - -
Di, 24.04. 20:00 7500 m 7/8 0/8 - - Ci
Di, 24.04. 14:00 1200 m 7/8 2/8 Cu - Ci
Di, 24.04. 8:00 1080 m 7/8 1/8 Sc - Ci
Ortszeit Bedeckungsgrad in Achtel und Wolkenuntergrenze
Do, 26.04. 2:00 1(2100m)
Do, 26.04. 1:50 -
Do, 26.04. 1:40 -
Do, 26.04. 1:30 1(2100m)
Do, 26.04. 1:20 -
Do, 26.04. 1:10 -
Do, 26.04. 1:00 2(2100m)
Do, 26.04. 0:30 2(2100m)
Do, 26.04. 0:00 2(1800m)
Mi, 25.04. 23:30 5(1800m)
Mi, 25.04. 23:00 2(840m) 4(1800m)
Mi, 25.04. 22:30 -
Ortszeit Luftdruck NN (hPa) Tendenz (hPa in 3 Std.)
Do, 26.04. 2:00 1018 + 0,9
Mi, 25.04. 20:00 1015 + 0,2
Mi, 25.04. 14:00 1015 + 0,5
Mi, 25.04. 8:00 1013 + 0,6
Mi, 25.04. 2:00 1014 - 1,2
Di, 24.04. 20:00 1015 - 1,4
Di, 24.04. 14:00 1019 - 0,7
Di, 24.04. 8:00 1020 0,0
Ortszeit Luftdruck NN (hPa) Tendenz (hPa in 3 Std.)
Do, 26.04. 2:00 1018 + 0,9
Do, 26.04. 1:50 1016 keine Meldung
Do, 26.04. 1:40 1017 keine Meldung
Do, 26.04. 1:30 1017 + 1,0
Do, 26.04. 1:20 1017 keine Meldung
Do, 26.04. 1:10 1017 keine Meldung
Do, 26.04. 1:00 1017 + 0,7
Do, 26.04. 0:30 1017 + 1,2
Do, 26.04. 0:00 1016 + 0,7
Mi, 25.04. 23:30 1016 + 1,2
Mi, 25.04. 23:00 1016 + 1,4
Mi, 25.04. 22:30 1016 + 1,1
Ortszeit Schneehöhe (cm)
Do, 26.04. 2:00 0
Mi, 25.04. 20:00 0
Mi, 25.04. 14:00 0
Mi, 25.04. 8:00 0
Mi, 25.04. 2:00 0
Di, 24.04. 20:00 0
Di, 24.04. 14:00 0
Di, 24.04. 8:00 0
Ortszeit Schneehöhe (cm)
Do, 26.04. 2:00 0
Do, 26.04. 1:50 -
Do, 26.04. 1:40 -
Do, 26.04. 1:30 -
Do, 26.04. 1:20 -
Do, 26.04. 1:10 -
Do, 26.04. 1:00 -
Do, 26.04. 0:30 -
Do, 26.04. 0:00 -
Mi, 25.04. 23:30 -
Mi, 25.04. 23:00 -
Mi, 25.04. 22:30 -
Link zu dieser Seite / Seite empfehlen

Das Wetter in ...